createdAt,value
2019-04-29T19:12:13.691Z,62.84
2019-04-29T19:13:16.156Z,62.94
2019-04-29T19:15:11.862Z,63.89
2019-04-29T19:16:12.408Z,63.32
2019-04-29T19:18:07.611Z,63.86
2019-04-29T19:19:05.209Z,64.15
2019-04-29T19:21:00.109Z,64.62
2019-04-29T19:22:00.761Z,65.29
2019-04-29T19:23:57.395Z,64.62
2019-04-29T19:24:55.831Z,65.10
2019-04-29T19:26:53.956Z,65.00
2019-04-29T19:27:50.506Z,65.29
2019-04-29T19:29:45.090Z,64.91
2019-04-29T19:30:45.494Z,65.29
2019-04-29T19:32:40.098Z,65.67
2019-04-29T19:33:40.559Z,67.00
2019-04-29T19:35:38.638Z,66.05
2019-04-29T19:36:37.068Z,66.15
2019-04-29T19:38:32.025Z,67.00
2019-04-29T19:39:32.436Z,66.53
2019-04-29T19:40:40.500Z,66.34
2019-04-29T19:41:33.246Z,66.44
2019-04-29T19:42:35.968Z,66.91
2019-04-29T19:43:35.838Z,67.29
2019-04-29T19:44:36.621Z,67.39
2019-04-29T19:45:34.961Z,67.39
2019-04-29T19:46:38.440Z,67.48
2019-04-29T19:47:36.225Z,68.15
2019-04-29T19:48:36.699Z,67.64
2019-04-29T19:49:40.183Z,68.02
2019-04-29T19:50:37.100Z,67.77
2019-04-29T19:51:39.283Z,67.77
2019-04-29T19:52:37.954Z,67.83
2019-04-29T19:53:42.570Z,67.74
2019-04-29T19:54:38.811Z,68.69
2019-04-29T19:55:42.203Z,68.40
2019-04-29T19:56:39.673Z,68.50
2019-04-29T19:57:46.946Z,68.88
2019-04-29T19:58:40.927Z,68.12
2019-04-29T19:59:50.331Z,68.21
2019-04-29T20:00:41.958Z,68.78
2019-04-29T20:01:42.385Z,68.12
2019-04-29T20:02:48.008Z,68.69
2019-04-29T20:03:43.162Z,68.50
2019-04-29T20:04:43.413Z,69.26
2019-04-29T20:05:45.836Z,69.17
2019-04-29T20:06:46.927Z,69.26
2019-04-29T20:07:49.510Z,69.35
2019-04-29T20:08:54.031Z,69.83
2019-04-29T20:09:47.711Z,70.02
2019-04-29T20:10:50.423Z,70.31
2019-04-29T20:11:46.510Z,70.50
2019-04-29T20:12:53.356Z,70.12
2019-04-29T20:14:01.339Z,70.21
2019-04-29T20:14:47.712Z,70.31
2019-04-29T20:15:48.101Z,70.02
2019-04-29T20:16:56.445Z,70.02
2019-04-29T20:17:49.608Z,70.12
2019-04-29T20:18:58.850Z,69.74
2019-04-29T20:19:55.238Z,70.12
2019-04-29T20:20:49.969Z,70.88
2019-04-29T20:21:50.506Z,70.59
2019-04-29T20:22:51.419Z,71.07
2019-04-29T20:23:53.265Z,70.50
2019-04-29T20:24:51.738Z,70.88
2019-04-29T20:25:52.239Z,71.45
2019-04-29T20:26:52.581Z,70.94
2019-04-29T20:28:05.114Z,71.13
2019-04-29T20:28:55.656Z,71.03
2019-04-29T20:29:55.688Z,71.22
2019-04-29T20:30:57.042Z,71.98
2019-04-29T20:31:56.491Z,72.27
2019-04-29T20:32:56.102Z,72.08
2019-04-29T20:33:56.061Z,72.17
2019-04-29T20:34:57.453Z,72.85
2019-04-29T20:36:01.729Z,72.65
2019-04-29T20:36:56.812Z,72.65
2019-04-29T20:38:00.216Z,72.94
2019-04-29T20:38:57.791Z,73.41
2019-04-29T20:40:00.793Z,73.22
2019-04-29T20:40:58.587Z,72.94
2019-04-29T20:42:01.138Z,73.41
2019-04-29T20:42:59.403Z,74.37
2019-04-29T20:44:00.888Z,74.27
2019-04-29T20:45:00.248Z,73.89
2019-04-29T20:46:02.459Z,74.27
2019-04-29T20:47:17.048Z,73.70
2019-04-29T20:48:01.572Z,74.75
2019-04-29T20:49:02.033Z,74.46
2019-04-29T20:50:02.466Z,74.56
2019-04-29T20:51:11.627Z,75.04
2019-04-29T20:52:05.282Z,75.89
2019-04-29T20:53:05.499Z,75.67
2019-04-29T20:54:04.167Z,76.04
2019-04-29T20:55:07.327Z,76.14
2019-04-29T20:56:11.972Z,76.33
2019-04-29T20:57:12.637Z,76.90
2019-04-29T20:58:06.555Z,76.90
2019-04-29T20:59:09.550Z,77.37
2019-04-29T21:00:06.747Z,77.76
2019-04-29T21:01:10.920Z,78.14
2019-04-29T21:02:12.569Z,77.76
2019-04-29T21:03:09.544Z,78.33
2019-04-29T21:04:08.472Z,78.52
2019-04-29T21:05:10.020Z,78.23
2019-04-29T21:06:09.155Z,78.80
2019-04-29T21:07:09.577Z,79.28
2019-04-29T21:08:16.512Z,79.75
2019-04-29T21:09:10.441Z,79.75
2019-04-29T21:10:10.868Z,79.57
2019-04-29T21:11:14.300Z,79.85
2019-04-29T21:12:11.713Z,80.33
2019-04-29T21:13:16.170Z,79.94
2019-04-29T21:14:12.565Z,80.42
2019-04-29T21:15:14.872Z,80.42
2019-04-29T21:16:15.106Z,80.42
2019-04-29T21:17:26.445Z,80.23
2019-04-29T21:18:14.698Z,80.80
2019-04-29T21:19:15.383Z,81.37
2019-04-29T21:20:15.129Z,81.28
2019-04-29T21:21:15.555Z,81.66
2019-04-29T21:22:21.990Z,82.04
2019-04-29T21:23:16.405Z,82.51
2019-04-29T21:24:18.631Z,83.18
2019-04-29T21:25:17.262Z,83.37
2019-04-29T21:26:17.688Z,83.09
2019-04-29T21:27:22.535Z,83.37
2019-04-29T21:28:18.538Z,83.09
2019-04-29T21:29:19.540Z,83.65
2019-04-29T21:30:19.395Z,84.23
2019-04-29T21:31:20.169Z,83.85
2019-04-29T21:32:20.245Z,83.85
2019-04-29T21:33:21.484Z,84.89
2019-04-29T21:34:21.097Z,84.89
2019-04-29T21:35:21.545Z,85.75
2019-04-29T21:36:21.957Z,86.38
2019-04-29T21:37:22.377Z,86.94
2019-04-29T21:38:23.483Z,86.90
2019-04-29T21:39:25.041Z,86.99
2019-04-29T21:40:26.014Z,87.08
2019-04-29T21:41:25.513Z,87.27
2019-04-29T21:42:28.055Z,87.71
2019-04-29T21:43:26.065Z,88.13
2019-04-29T21:44:27.911Z,88.66
2019-04-29T21:45:25.795Z,88.85
2019-04-29T21:46:29.537Z,89.23
2019-04-29T21:47:28.333Z,89.32
2019-04-29T21:48:33.516Z,89.89
2019-04-29T21:49:27.490Z,90.28
2019-04-29T21:50:33.862Z,90.56
2019-04-29T21:51:28.342Z,90.66
2019-04-29T21:52:28.769Z,90.94
2019-04-29T21:53:31.531Z,91.42
2019-04-29T21:54:29.641Z,91.51
2019-04-29T21:55:30.057Z,91.89
2019-04-29T21:56:30.480Z,92.94
2019-04-29T21:57:30.901Z,93.13
2019-04-29T21:58:32.944Z,93.32
2019-04-29T21:59:31.756Z,93.79
2019-04-29T22:00:32.182Z,94.37
2019-04-29T22:01:37.449Z,95.22
2019-04-29T22:02:33.032Z,95.41
2019-04-29T22:03:33.457Z,95.51
2019-04-29T22:04:37.402Z,96.17
2019-04-29T22:05:35.007Z,95.79
2019-04-29T22:06:34.747Z,95.98
2019-04-29T22:07:35.760Z,96.65
2019-04-29T22:08:35.590Z,96.36
2019-04-29T22:09:40.293Z,96.74
2019-04-29T22:10:36.859Z,97.69
2019-04-29T22:11:43.047Z,97.79
2019-04-29T22:12:37.291Z,97.98
2019-04-29T22:13:39.189Z,98.27
2019-04-29T22:14:38.141Z,98.46
2019-04-29T22:15:42.297Z,99.31
2019-04-29T22:16:38.990Z,99.31
2019-04-29T22:17:39.431Z,99.12
2019-04-29T22:18:39.847Z,99.22
2019-04-29T22:19:40.266Z,99.74
2019-04-29T22:20:42.214Z,99.84
2019-04-29T22:21:41.116Z,99.99
2019-04-29T22:22:41.552Z,99.99
2019-04-29T22:23:44.265Z,99.99
2019-04-29T22:24:42.407Z,99.99
2019-04-29T22:25:45.697Z,99.99
2019-04-29T22:26:45.087Z,99.99
2019-04-29T22:27:45.151Z,99.99
2019-04-29T22:28:45.814Z,99.99
2019-04-29T22:29:45.422Z,99.99
2019-04-29T22:30:45.334Z,99.99
2019-04-29T22:31:45.883Z,99.99
2019-04-29T22:32:47.089Z,99.99
2019-04-29T22:33:48.783Z,99.99
2019-04-29T22:34:49.574Z,99.99
2019-04-29T22:35:47.079Z,99.99
2019-04-29T22:36:48.250Z,99.99
2019-04-29T22:37:47.927Z,99.99
2019-04-29T22:38:51.937Z,99.99
2019-04-29T22:39:48.779Z,99.99
2019-04-29T22:40:49.207Z,99.99
2019-04-29T22:41:52.671Z,99.99
2019-04-29T22:42:50.053Z,99.99
2019-04-29T22:43:50.480Z,99.99
2019-04-29T22:44:52.607Z,99.99
2019-04-29T22:45:51.331Z,99.99
2019-04-29T22:46:51.770Z,99.99
2019-04-29T22:47:54.332Z,99.99
2019-04-29T22:48:52.606Z,99.99
2019-04-29T22:49:53.045Z,99.99
2019-04-29T22:50:53.462Z,99.99
2019-04-29T22:51:57.092Z,99.99
2019-04-29T22:52:56.644Z,99.99
2019-04-29T22:53:55.819Z,99.99
2019-04-29T22:54:59.950Z,99.99
2019-04-29T22:55:56.515Z,99.99
2019-04-29T22:56:56.683Z,99.99
2019-04-29T22:57:56.434Z,99.99
2019-04-29T22:58:56.871Z,99.99
2019-04-29T22:59:57.376Z,99.99
2019-04-29T23:00:57.714Z,99.99
2019-04-29T23:01:58.136Z,99.99
2019-04-29T23:03:02.408Z,99.99
2019-04-29T23:03:58.989Z,99.99
2019-04-29T23:04:59.420Z,99.99
2019-04-29T23:06:04.106Z,99.99
2019-04-29T23:07:00.263Z,99.99
2019-04-29T23:08:00.703Z,99.99
2019-04-29T23:09:01.117Z,99.99
2019-04-29T23:10:01.539Z,99.99
2019-04-29T23:11:04.283Z,99.99
2019-04-29T23:12:02.392Z,99.99
2019-04-29T23:13:02.814Z,99.99
2019-04-29T23:14:06.659Z,99.99
2019-04-29T23:15:05.391Z,99.99
2019-04-29T23:16:04.094Z,99.99
2019-04-29T23:17:06.154Z,99.99
2019-04-29T23:18:04.938Z,99.99
2019-04-29T23:19:05.371Z,99.99
2019-04-29T23:20:05.789Z,99.99
2019-04-29T23:21:06.215Z,99.59
2019-04-29T23:22:06.637Z,99.99
2019-04-29T23:23:07.680Z,98.74
2019-04-29T23:24:13.251Z,99.30
2019-04-29T23:25:07.915Z,98.45
2019-04-29T23:26:08.344Z,98.55
2019-04-29T23:27:11.581Z,98.55
2019-04-29T23:28:09.231Z,98.93
2019-04-29T23:29:09.637Z,97.97
2019-04-29T23:30:13.700Z,97.97
2019-04-29T23:31:10.467Z,98.17
2019-04-29T23:32:10.888Z,98.26
2019-04-29T23:33:11.328Z,98.17
2019-04-29T23:34:11.743Z,98.26
2019-04-29T23:35:12.163Z,97.78
2019-04-29T23:36:14.283Z,97.50
2019-04-29T23:37:13.015Z,97.69
2019-04-29T23:38:15.328Z,96.93
2019-04-29T23:39:15.042Z,96.93
2019-04-29T23:40:14.292Z,97.03
2019-04-29T23:41:15.345Z,97.03
2019-04-29T23:42:16.294Z,96.65
2019-04-29T23:43:20.062Z,96.26
2019-04-29T23:44:15.988Z,96.55
2019-04-29T23:45:21.245Z,96.93
2019-04-29T23:46:16.855Z,96.08
2019-04-29T23:47:17.783Z,95.70
2019-04-29T23:48:19.896Z,95.89
2019-04-29T23:49:18.122Z,95.60
2019-04-29T23:50:19.085Z,95.51
2019-04-29T23:51:18.960Z,95.60
2019-04-29T23:52:19.389Z,94.74
2019-04-29T23:53:20.761Z,94.74
2019-04-29T23:54:20.234Z,95.12
2019-04-29T23:55:27.396Z,94.56
2019-04-29T23:56:21.098Z,94.74
2019-04-29T23:57:23.674Z,94.93
2019-04-29T23:58:21.931Z,94.84
2019-04-29T23:59:22.363Z,95.03
